createdAt,value
2019-01-16T00:00:11.818Z,8.10
2019-01-16T00:01:11.809Z,9.50
2019-01-16T00:02:11.795Z,11.90
2019-01-16T00:03:11.784Z,9.00
2019-01-16T00:04:11.777Z,8.80
2019-01-16T00:05:11.767Z,10.70
2019-01-16T00:06:11.763Z,8.30
2019-01-16T00:07:11.752Z,9.90
2019-01-16T00:08:11.737Z,9.40
2019-01-16T00:09:11.730Z,8.30
2019-01-16T00:10:11.724Z,9.50
2019-01-16T00:11:11.714Z,11.50
2019-01-16T00:12:11.706Z,8.60
2019-01-16T00:13:11.695Z,9.50
2019-01-16T00:14:11.682Z,8.40
2019-01-16T00:15:11.672Z,11.20
2019-01-16T00:16:11.663Z,8.90
2019-01-16T00:17:11.657Z,14.10
2019-01-16T00:18:17.008Z,11.10
2019-01-16T00:19:11.645Z,9.30
2019-01-16T00:20:11.630Z,9.80
2019-01-16T00:21:11.620Z,9.10
2019-01-16T00:22:11.605Z,9.00
2019-01-16T00:23:11.596Z,9.40
2019-01-16T00:24:11.591Z,11.60
2019-01-16T00:25:11.582Z,12.80
2019-01-16T00:26:11.568Z,12.40
2019-01-16T00:27:11.558Z,13.10
2019-01-16T00:28:11.549Z,11.10
2019-01-16T00:29:11.542Z,11.70
2019-01-16T00:30:11.535Z,12.50
2019-01-16T00:31:11.524Z,10.70
2019-01-16T00:32:11.516Z,13.70
2019-01-16T00:33:11.505Z,13.90
2019-01-16T00:34:11.495Z,11.20
2019-01-16T00:35:11.480Z,12.50
2019-01-16T00:36:11.473Z,14.00
2019-01-16T00:37:11.462Z,11.80
2019-01-16T00:38:11.458Z,13.20
2019-01-16T00:39:11.449Z,13.10
2019-01-16T00:40:11.434Z,13.60
2019-01-16T00:41:11.425Z,12.30
2019-01-16T00:42:11.421Z,15.80
2019-01-16T00:43:11.410Z,13.50
2019-01-16T00:44:11.400Z,15.70
2019-01-16T00:45:11.391Z,12.40
2019-01-16T00:46:11.377Z,12.40
2019-01-16T00:47:11.367Z,12.40
2019-01-16T00:48:11.357Z,15.80
2019-01-16T00:49:11.352Z,12.20
2019-01-16T00:50:11.344Z,11.20
2019-01-16T00:51:11.333Z,11.30
2019-01-16T00:52:11.323Z,13.90
2019-01-16T00:53:11.315Z,12.90
2019-01-16T00:54:11.300Z,11.30
2019-01-16T00:55:11.290Z,9.00
2019-01-16T00:56:11.288Z,10.30
2019-01-16T00:57:11.276Z,14.60
2019-01-16T00:58:11.261Z,13.50
2019-01-16T00:59:11.366Z,10.00
2019-01-16T01:00:11.242Z,10.80
2019-01-16T01:01:11.232Z,11.00
2019-01-16T01:02:11.227Z,12.10
2019-01-16T01:03:11.217Z,12.00
2019-01-16T01:04:11.260Z,11.90
2019-01-16T01:05:11.199Z,12.80
2019-01-16T01:06:11.185Z,11.00
2019-01-16T01:07:11.175Z,13.00
2019-01-16T01:08:11.165Z,10.20
2019-01-16T01:09:11.155Z,13.60
2019-01-16T01:10:11.150Z,13.80
2019-01-16T01:11:11.139Z,11.50
2019-01-16T01:12:11.126Z,13.20
2019-01-16T01:13:11.117Z,12.30
2019-01-16T01:14:11.111Z,14.50
2019-01-16T01:15:11.100Z,11.30
2019-01-16T01:16:11.093Z,11.70
2019-01-16T01:17:11.083Z,15.60
2019-01-16T01:18:11.070Z,12.70
2019-01-16T01:19:11.058Z,13.20
2019-01-16T01:20:11.051Z,12.30
2019-01-16T01:21:11.039Z,11.10
2019-01-16T01:22:11.035Z,13.50
2019-01-16T01:23:11.025Z,10.10
2019-01-16T01:24:11.015Z,10.70
2019-01-16T01:25:11.006Z,10.40
2019-01-16T01:26:10.994Z,12.70
2019-01-16T01:27:10.980Z,10.30
2019-01-16T01:28:10.975Z,12.00
2019-01-16T01:29:10.965Z,10.30
2019-01-16T01:30:10.954Z,11.90
2019-01-16T01:31:10.943Z,10.10
2019-01-16T01:32:10.932Z,12.80
2019-01-16T01:33:10.924Z,10.30
2019-01-16T01:34:10.919Z,10.00
2019-01-16T01:35:10.910Z,11.00
2019-01-16T01:36:10.899Z,14.50
2019-01-16T01:37:10.888Z,9.90
2019-01-16T01:38:10.875Z,12.10
2019-01-16T01:39:10.864Z,10.30
2019-01-16T01:40:10.855Z,11.40
2019-01-16T01:41:10.856Z,8.70
2019-01-16T01:42:10.840Z,8.40
2019-01-16T01:43:10.832Z,9.90
2019-01-16T01:44:10.817Z,10.40
2019-01-16T01:45:10.807Z,7.60
2019-01-16T01:46:10.801Z,9.90
2019-01-16T01:47:10.791Z,9.40
2019-01-16T01:48:10.782Z,8.10
2019-01-16T01:49:10.774Z,10.20
2019-01-16T01:50:10.759Z,8.80
2019-01-16T01:51:11.863Z,9.10
2019-01-16T01:52:10.739Z,9.50
2019-01-16T01:53:10.730Z,10.40
2019-01-16T01:54:10.725Z,8.00
2019-01-16T01:55:10.716Z,7.60
2019-01-16T01:56:10.705Z,7.30
2019-01-16T01:57:10.694Z,9.90
2019-01-16T01:58:10.681Z,7.50
2019-01-16T01:59:10.670Z,8.70
2019-01-16T02:00:11.891Z,12.40
2019-01-16T02:01:10.657Z,11.60
2019-01-16T02:02:10.643Z,9.50
2019-01-16T02:03:10.633Z,7.90
2019-01-16T02:04:10.623Z,9.50
2019-01-16T02:05:10.614Z,7.90
2019-01-16T02:06:10.609Z,12.10
2019-01-16T02:07:10.598Z,10.10
2019-01-16T02:08:10.588Z,7.20
2019-01-16T02:09:10.579Z,10.60
2019-01-16T02:10:10.565Z,9.80
2019-01-16T02:11:10.554Z,7.70
2019-01-16T02:12:10.544Z,9.00
2019-01-16T02:13:10.536Z,8.80
2019-01-16T02:14:10.534Z,7.40
2019-01-16T02:15:10.520Z,8.70
2019-01-16T02:16:10.507Z,7.90
2019-01-16T02:17:10.497Z,9.20
2019-01-16T02:18:10.492Z,10.40
2019-01-16T02:19:10.481Z,9.10
2019-01-16T02:20:10.471Z,9.30
2019-01-16T02:21:10.462Z,9.70
2019-01-16T02:22:10.453Z,10.90
2019-01-16T02:23:10.437Z,7.80
2019-01-16T02:24:10.427Z,9.10
2019-01-16T02:25:10.418Z,9.90
2019-01-16T02:26:10.413Z,9.20
2019-01-16T02:27:10.403Z,10.40
2019-01-16T02:28:10.394Z,8.90
2019-01-16T02:29:10.384Z,8.30
2019-01-16T02:30:10.373Z,11.00
2019-01-16T02:31:10.363Z,7.90
2019-01-16T02:32:10.357Z,8.70
2019-01-16T02:33:10.345Z,8.30
2019-01-16T02:34:10.332Z,8.90
2019-01-16T02:35:10.321Z,8.10
2019-01-16T02:36:10.310Z,9.50
2019-01-16T02:37:10.302Z,6.90
2019-01-16T02:38:10.297Z,10.40
2019-01-16T02:39:10.289Z,7.40
2019-01-16T02:40:10.277Z,8.90
2019-01-16T02:41:10.267Z,8.20
2019-01-16T02:42:10.266Z,7.30
2019-01-16T02:43:10.254Z,13.00
2019-01-16T02:44:10.234Z,7.80
2019-01-16T02:45:10.225Z,8.30
2019-01-16T02:46:10.220Z,8.70
2019-01-16T02:47:10.208Z,9.30
2019-01-16T02:48:10.194Z,7.40
2019-01-16T02:49:10.187Z,6.90
2019-01-16T02:50:10.179Z,6.70
2019-01-16T02:51:10.169Z,8.80
2019-01-16T02:52:10.159Z,10.40
2019-01-16T02:53:10.151Z,7.70
2019-01-16T02:54:10.138Z,6.40
2019-01-16T02:55:10.127Z,7.60
2019-01-16T02:56:10.119Z,9.20
2019-01-16T02:57:10.107Z,7.60
2019-01-16T02:58:10.102Z,8.10
2019-01-16T02:59:10.093Z,7.10
2019-01-16T03:00:10.082Z,10.00
2019-01-16T03:01:10.072Z,7.40
2019-01-16T03:02:10.058Z,9.00
2019-01-16T03:03:10.048Z,8.70
2019-01-16T03:04:10.044Z,8.10
2019-01-16T03:05:10.033Z,8.00
2019-01-16T03:06:10.022Z,9.30
2019-01-16T03:07:10.007Z,8.70
2019-01-16T03:08:09.998Z,7.40
2019-01-16T03:09:09.992Z,9.20
2019-01-16T03:10:09.984Z,9.60
2019-01-16T03:11:09.974Z,6.90
2019-01-16T03:12:09.964Z,9.90
2019-01-16T03:13:09.955Z,6.70
2019-01-16T03:14:09.941Z,9.20
2019-01-16T03:15:09.941Z,8.50
2019-01-16T03:16:09.920Z,10.30
2019-01-16T03:17:09.910Z,9.30
2019-01-16T03:18:09.905Z,9.40
2019-01-16T03:19:09.897Z,10.90
2019-01-16T03:20:09.882Z,8.30
2019-01-16T03:21:09.872Z,10.40
2019-01-16T03:22:09.869Z,8.90
2019-01-16T03:23:09.859Z,10.90
2019-01-16T03:24:09.848Z,9.40
2019-01-16T03:25:09.839Z,9.60
2019-01-16T03:26:09.823Z,10.00
2019-01-16T03:27:09.813Z,10.90
2019-01-16T03:28:09.803Z,13.00
2019-01-16T03:29:09.795Z,11.30
2019-01-16T03:30:09.791Z,9.20
2019-01-16T03:31:09.974Z,11.80
2019-01-16T03:32:09.773Z,9.60
2019-01-16T03:33:09.769Z,13.60
2019-01-16T03:34:09.744Z,8.30
2019-01-16T03:35:09.734Z,9.90
2019-01-16T03:36:09.730Z,12.60
2019-01-16T03:37:09.718Z,11.10
2019-01-16T03:38:09.705Z,11.80
2019-01-16T03:39:09.693Z,10.60
2019-01-16T03:40:09.684Z,12.10
2019-01-16T03:41:09.675Z,14.00
2019-01-16T03:42:09.672Z,11.60
2019-01-16T03:43:09.660Z,11.10
2019-01-16T03:44:09.649Z,12.50
2019-01-16T03:45:09.642Z,13.10
2019-01-16T03:46:09.629Z,12.40
2019-01-16T03:47:09.619Z,13.10
2019-01-16T03:48:09.605Z,10.80
2019-01-16T03:49:13.759Z,13.90
2019-01-16T03:50:09.669Z,13.30
2019-01-16T03:51:09.579Z,13.20
2019-01-16T03:52:09.566Z,14.70
2019-01-16T03:53:09.555Z,10.90
2019-01-16T03:54:09.550Z,11.10
2019-01-16T03:55:09.539Z,10.20
2019-01-16T03:56:09.530Z,9.70
2019-01-16T03:57:09.521Z,14.80
2019-01-16T03:58:09.506Z,13.20
2019-01-16T03:59:09.495Z,14.20
2019-01-16T04:00:09.487Z,12.40
2019-01-16T04:01:09.476Z,17.00
2019-01-16T04:02:09.470Z,13.60
2019-01-16T04:03:09.460Z,15.30
2019-01-16T04:04:09.450Z,13.60
2019-01-16T04:05:09.439Z,11.80
2019-01-16T04:06:09.424Z,13.90
2019-01-16T04:07:09.416Z,11.80
2019-01-16T04:08:09.409Z,17.30
2019-01-16T04:09:09.398Z,17.10
2019-01-16T04:10:09.421Z,11.50
2019-01-16T04:11:09.375Z,13.30
2019-01-16T04:12:09.367Z,15.50
2019-01-16T04:13:09.354Z,13.20
2019-01-16T04:14:09.352Z,15.00
2019-01-16T04:15:09.338Z,13.60
2019-01-16T04:16:09.327Z,13.50
2019-01-16T04:17:09.347Z,13.30
2019-01-16T04:18:09.303Z,15.00
2019-01-16T04:19:09.297Z,14.20
2019-01-16T04:20:09.284Z,13.50
2019-01-16T04:21:09.275Z,14.40
2019-01-16T04:22:09.268Z,11.40
2019-01-16T04:23:09.256Z,13.40
2019-01-16T04:24:09.242Z,11.40
2019-01-16T04:25:09.246Z,11.10
2019-01-16T04:26:09.227Z,16.90
2019-01-16T04:27:09.216Z,13.60
2019-01-16T04:28:09.207Z,14.00
2019-01-16T04:29:09.196Z,12.10
2019-01-16T04:30:09.182Z,13.70
2019-01-16T04:31:09.175Z,12.80
2019-01-16T04:32:09.160Z,11.70
2019-01-16T04:33:09.150Z,14.20
2019-01-16T04:34:09.146Z,11.90
2019-01-16T04:35:09.134Z,10.00
2019-01-16T04:36:09.126Z,9.90
2019-01-16T04:37:09.116Z,11.40
2019-01-16T04:38:09.101Z,12.90
2019-01-16T04:39:09.090Z,9.60
2019-01-16T04:40:09.085Z,10.90
2019-01-16T04:41:09.076Z,11.90
2019-01-16T04:42:09.062Z,14.90
2019-01-16T04:43:09.053Z,11.80
2019-01-16T04:44:10.022Z,12.10
2019-01-16T04:45:09.030Z,10.80
2019-01-16T04:46:09.025Z,12.30
2019-01-16T04:47:09.013Z,11.20
2019-01-16T04:48:09.005Z,12.20
2019-01-16T04:49:08.996Z,11.50
2019-01-16T04:50:08.981Z,12.00
2019-01-16T04:51:08.969Z,14.20
2019-01-16T04:52:08.961Z,10.90
2019-01-16T04:53:08.951Z,8.30
2019-01-16T04:54:08.946Z,12.40
2019-01-16T04:55:08.934Z,11.40
2019-01-16T04:56:08.921Z,11.00
2019-01-16T04:57:08.912Z,10.70
2019-01-16T04:58:08.907Z,10.00
2019-01-16T04:59:08.895Z,11.20
2019-01-16T05:00:08.884Z,9.80
2019-01-16T05:01:08.874Z,10.50
2019-01-16T05:02:08.860Z,11.00
2019-01-16T05:03:08.852Z,11.50
2019-01-16T05:04:08.839Z,9.10
2019-01-16T05:05:08.831Z,9.70
2019-01-16T05:06:08.830Z,9.90
2019-01-16T05:07:08.814Z,9.60
2019-01-16T05:08:08.806Z,12.10
2019-01-16T05:09:08.796Z,9.10
2019-01-16T05:10:08.781Z,10.20
2019-01-16T05:11:08.770Z,11.00
2019-01-16T05:12:08.766Z,10.30
2019-01-16T05:13:08.756Z,11.50
2019-01-16T05:14:08.742Z,10.20
2019-01-16T05:15:08.731Z,12.80
2019-01-16T05:16:08.720Z,7.40
2019-01-16T05:17:08.711Z,9.10
2019-01-16T05:18:08.706Z,10.50
2019-01-16T05:19:08.696Z,11.20
2019-01-16T05:20:08.686Z,9.70
2019-01-16T05:21:08.676Z,11.50
2019-01-16T05:22:08.662Z,10.80
2019-01-16T05:23:08.655Z,8.60
2019-01-16T05:24:08.642Z,11.20
2019-01-16T05:25:08.632Z,7.70
2019-01-16T05:26:08.627Z,10.50
2019-01-16T05:27:08.616Z,11.50
2019-01-16T05:28:08.602Z,11.30
2019-01-16T05:29:08.592Z,9.40
2019-01-16T05:30:08.587Z,9.90
2019-01-16T05:31:08.580Z,9.30
2019-01-16T05:32:08.570Z,9.20
2019-01-16T05:33:08.561Z,9.50
2019-01-16T05:34:08.548Z,8.70
2019-01-16T05:35:08.539Z,8.80
2019-01-16T05:36:08.523Z,8.30
2019-01-16T05:37:08.515Z,9.10
2019-01-16T05:38:08.511Z,8.70
2019-01-16T05:39:08.498Z,9.70
2019-01-16T05:40:08.488Z,8.20
2019-01-16T05:41:08.498Z,9.30
2019-01-16T05:42:08.471Z,7.20
2019-01-16T05:43:08.458Z,9.70
2019-01-16T05:44:08.451Z,12.80
2019-01-16T05:45:08.437Z,10.00
2019-01-16T05:46:08.424Z,8.50
2019-01-16T05:47:08.415Z,10.50
2019-01-16T05:48:08.404Z,7.20
2019-01-16T05:49:08.394Z,8.50
2019-01-16T05:50:08.406Z,9.70
2019-01-16T05:51:08.378Z,8.50
2019-01-16T05:52:08.369Z,7.80
2019-01-16T05:53:08.360Z,10.40
2019-01-16T05:54:08.344Z,9.10
2019-01-16T05:55:08.335Z,8.20
2019-01-16T05:56:08.323Z,7.60
2019-01-16T05:57:08.315Z,10.00
2019-01-16T05:58:08.309Z,8.40
2019-01-16T05:59:08.299Z,10.10
2019-01-16T06:00:08.285Z,8.70
2019-01-16T06:01:08.276Z,10.40
2019-01-16T06:02:08.270Z,8.80
2019-01-16T06:03:08.259Z,9.00
2019-01-16T06:04:08.250Z,6.40
2019-01-16T06:05:08.241Z,10.70
2019-01-16T06:06:08.228Z,7.10
2019-01-16T06:07:08.217Z,7.30
2019-01-16T06:08:08.207Z,9.90
2019-01-16T06:09:08.197Z,9.70
2019-01-16T06:10:08.193Z,7.40
2019-01-16T06:11:08.182Z,8.00
2019-01-16T06:12:08.170Z,7.80
2019-01-16T06:13:08.161Z,7.70
2019-01-16T06:14:08.147Z,8.30
2019-01-16T06:15:08.136Z,6.70
2019-01-16T06:16:08.132Z,9.80
2019-01-16T06:17:08.123Z,8.40
2019-01-16T06:18:08.108Z,10.70
2019-01-16T06:19:08.098Z,6.40
2019-01-16T06:20:08.090Z,7.80
2019-01-16T06:21:08.078Z,7.40
2019-01-16T06:22:08.073Z,6.60
2019-01-16T06:23:08.063Z,8.30
2019-01-16T06:24:08.055Z,6.30
2019-01-16T06:25:08.045Z,5.50
2019-01-16T06:26:08.030Z,6.20
2019-01-16T06:27:08.019Z,9.80
2019-01-16T06:28:08.010Z,11.10
2019-01-16T06:29:08.005Z,6.00
2019-01-16T06:30:07.995Z,8.10
2019-01-16T06:31:07.990Z,7.80
2019-01-16T06:32:07.973Z,5.90
2019-01-16T06:33:07.961Z,4.20
2019-01-16T06:34:07.956Z,4.50
2019-01-16T06:35:07.945Z,4.60
2019-01-16T06:36:07.935Z,4.80
2019-01-16T06:37:07.926Z,5.50
2019-01-16T06:38:07.974Z,6.00
2019-01-16T06:39:07.902Z,6.80
2019-01-16T06:40:07.892Z,7.30
2019-01-16T06:41:07.883Z,6.20
2019-01-16T06:42:07.880Z,5.30
2019-01-16T06:43:07.866Z,7.00
2019-01-16T06:44:07.857Z,6.80
2019-01-16T06:45:07.847Z,7.40
2019-01-16T06:46:07.832Z,6.20
2019-01-16T06:47:07.821Z,8.70
2019-01-16T06:48:07.818Z,8.40
2019-01-16T06:49:07.808Z,4.30
2019-01-16T06:50:07.794Z,5.70
2019-01-16T06:51:07.783Z,4.00
2019-01-16T06:52:07.772Z,5.80
2019-01-16T06:53:07.768Z,6.70
2019-01-16T06:54:07.757Z,5.70
2019-01-16T06:55:07.747Z,10.10
2019-01-16T06:56:07.738Z,7.50
2019-01-16T06:57:07.728Z,5.80
2019-01-16T06:58:07.716Z,7.80
2019-01-16T06:59:07.705Z,5.60
2019-01-16T07:00:07.694Z,9.40
2019-01-16T07:01:07.684Z,6.30
2019-01-16T07:02:07.680Z,6.20
2019-01-16T07:03:07.669Z,6.90
2019-01-16T07:04:07.655Z,5.40
2019-01-16T07:05:07.646Z,6.40
2019-01-16T07:06:07.643Z,7.70
2019-01-16T07:07:07.630Z,6.30
2019-01-16T07:08:07.620Z,4.90
2019-01-16T07:09:07.611Z,6.70
2019-01-16T07:10:07.597Z,6.00
2019-01-16T07:11:07.585Z,5.90
2019-01-16T07:12:07.575Z,7.80
2019-01-16T07:13:07.567Z,8.70
2019-01-16T07:14:07.561Z,8.60
2019-01-16T07:15:07.550Z,6.00
2019-01-16T07:16:07.541Z,7.10
2019-01-16T07:17:07.532Z,8.40
2019-01-16T07:18:07.518Z,6.10
2019-01-16T07:19:07.506Z,7.90
2019-01-16T07:20:09.898Z,6.70
2019-01-16T07:21:07.493Z,9.00
2019-01-16T07:22:07.478Z,6.80
2019-01-16T07:23:07.466Z,5.10
2019-01-16T07:24:07.456Z,7.80
2019-01-16T07:25:07.446Z,7.00
2019-01-16T07:26:07.441Z,6.90
2019-01-16T07:27:07.431Z,6.20
2019-01-16T07:28:07.423Z,6.80
2019-01-16T07:29:07.412Z,7.70
2019-01-16T07:30:07.399Z,6.80
2019-01-16T07:31:07.387Z,6.40
2019-01-16T07:32:07.377Z,8.60
2019-01-16T07:33:07.369Z,7.30
2019-01-16T07:34:07.363Z,6.00
2019-01-16T07:35:07.356Z,7.50
2019-01-16T07:36:07.338Z,6.00
2019-01-16T07:37:07.329Z,4.70
2019-01-16T07:38:07.324Z,5.60
2019-01-16T07:39:07.315Z,6.20
2019-01-16T07:40:07.306Z,5.00
2019-01-16T07:41:07.293Z,7.80
2019-01-16T07:42:07.280Z,5.10
2019-01-16T07:43:07.269Z,7.00
2019-01-16T07:44:07.262Z,4.90
2019-01-16T07:45:07.249Z,6.00
2019-01-16T07:46:07.243Z,6.60
2019-01-16T07:47:07.235Z,7.50
2019-01-16T07:48:07.225Z,5.40
2019-01-16T07:49:07.215Z,7.20
2019-01-16T07:50:07.200Z,4.40
2019-01-16T07:51:07.189Z,4.90
2019-01-16T07:52:07.184Z,5.70
2019-01-16T07:53:07.175Z,5.90
2019-01-16T07:54:07.169Z,6.60
2019-01-16T07:55:07.150Z,6.30
2019-01-16T07:56:07.140Z,4.10
2019-01-16T07:57:07.130Z,5.40
2019-01-16T07:58:07.125Z,6.10
2019-01-16T07:59:07.114Z,3.80
2019-01-16T08:00:07.104Z,8.20
2019-01-16T08:01:07.095Z,6.10
2019-01-16T08:02:07.080Z,8.40
2019-01-16T08:03:07.070Z,5.90
2019-01-16T08:04:07.060Z,5.30
2019-01-16T08:05:07.051Z,5.30
2019-01-16T08:06:07.047Z,8.40
2019-01-16T08:07:07.036Z,6.50
2019-01-16T08:08:07.022Z,5.60
2019-01-16T08:09:07.012Z,5.70
2019-01-16T08:10:07.007Z,6.00
2019-01-16T08:11:06.997Z,8.10
2019-01-16T08:12:06.987Z,5.70
2019-01-16T08:13:06.976Z,3.80
2019-01-16T08:14:06.963Z,6.00
2019-01-16T08:15:06.951Z,8.80
2019-01-16T08:16:06.942Z,4.80
2019-01-16T08:17:06.932Z,9.00
2019-01-16T08:18:06.926Z,9.00
2019-01-16T08:19:06.917Z,8.50
2019-01-16T08:20:06.908Z,5.70
2019-01-16T08:21:06.898Z,5.50
2019-01-16T08:22:06.883Z,5.90
2019-01-16T08:23:06.873Z,8.80
2019-01-16T08:24:06.870Z,8.80
2019-01-16T08:25:06.858Z,8.40
2019-01-16T08:26:06.844Z,7.10
2019-01-16T08:27:06.832Z,6.40
2019-01-16T08:28:06.824Z,7.50
2019-01-16T08:29:06.814Z,6.40
2019-01-16T08:30:06.807Z,10.20
2019-01-16T08:31:06.798Z,5.20
2019-01-16T08:32:06.789Z,5.60
2019-01-16T08:33:06.779Z,8.40
2019-01-16T08:34:06.766Z,9.60
2019-01-16T08:35:06.755Z,7.10
2019-01-16T08:36:06.743Z,9.50
2019-01-16T08:37:06.734Z,7.00
2019-01-16T08:38:06.728Z,8.70
2019-01-16T08:39:06.717Z,11.40
2019-01-16T08:40:06.704Z,8.60
2019-01-16T08:41:06.696Z,8.60
2019-01-16T08:42:06.692Z,7.70
2019-01-16T08:43:06.681Z,7.10
2019-01-16T08:44:13.458Z,7.80
2019-01-16T08:45:06.661Z,6.70
2019-01-16T08:46:06.646Z,10.60
2019-01-16T08:47:06.637Z,7.30
2019-01-16T08:48:06.627Z,12.20
2019-01-16T08:49:06.619Z,7.60
2019-01-16T08:50:06.613Z,10.10
2019-01-16T08:51:06.603Z,11.40
2019-01-16T08:52:06.592Z,11.00
2019-01-16T08:53:06.585Z,10.90
2019-01-16T08:57:06.544Z,9.60
2019-01-16T09:07:06.444Z,12.60
2019-01-16T09:08:06.433Z,10.80
2019-01-16T09:09:06.428Z,11.20
2019-01-16T09:10:06.420Z,11.30
2019-01-16T09:11:06.413Z,15.70
2019-01-16T09:12:06.395Z,12.10
2019-01-16T09:13:06.387Z,14.80
2019-01-16T09:14:06.383Z,13.60
2019-01-16T09:15:06.372Z,12.50
2019-01-16T09:16:06.363Z,15.40
2019-01-16T09:17:06.354Z,14.40
2019-01-16T09:18:06.341Z,16.90
2019-01-16T09:19:06.330Z,13.50
2019-01-16T09:20:06.321Z,16.40
2019-01-16T09:21:06.311Z,14.30
2019-01-16T09:22:06.308Z,13.00
2019-01-16T09:23:06.297Z,14.50
2019-01-16T09:24:06.288Z,16.80
2019-01-16T09:25:06.278Z,14.00
2019-01-16T09:26:06.265Z,15.00
2019-01-16T09:27:06.254Z,14.50
2019-01-16T09:28:06.249Z,15.40
2019-01-16T09:29:06.239Z,16.40
2019-01-16T09:30:06.231Z,16.40
2019-01-16T09:31:06.220Z,15.80
2019-01-16T09:32:06.208Z,15.70
2019-01-16T09:33:06.198Z,14.20
2019-01-16T09:34:06.194Z,14.30
2019-01-16T09:35:06.183Z,15.20
2019-01-16T09:36:06.172Z,14.30
2019-01-16T09:37:06.163Z,14.10
2019-01-16T09:38:06.151Z,16.70
2019-01-16T09:39:06.140Z,13.90
2019-01-16T09:40:06.132Z,15.00
2019-01-16T09:41:06.121Z,15.00
2019-01-16T09:42:06.117Z,18.10
2019-01-16T09:43:06.108Z,15.20
2019-01-16T09:44:06.093Z,17.60
2019-01-16T09:45:06.084Z,15.80
2019-01-16T09:46:06.080Z,17.40
2019-01-16T09:47:06.069Z,17.90
2019-01-16T09:48:06.063Z,21.20
2019-01-16T09:49:06.049Z,15.80
2019-01-16T09:50:06.036Z,14.70
2019-01-16T09:51:06.027Z,15.10
2019-01-16T09:52:06.017Z,15.50
2019-01-16T09:53:06.008Z,16.60
2019-01-16T09:54:06.005Z,15.00
2019-01-16T09:55:05.993Z,17.40
2019-01-16T09:56:05.987Z,14.00
2019-01-16T09:57:05.974Z,12.50
2019-01-16T09:58:05.960Z,14.60
2019-01-16T09:59:05.950Z,17.10
2019-01-16T10:00:05.947Z,15.10
2019-01-16T10:01:05.938Z,16.80
2019-01-16T10:02:05.924Z,14.70
2019-01-16T10:03:05.914Z,17.00
2019-01-16T10:04:05.903Z,15.00
2019-01-16T10:05:05.896Z,13.70
2019-01-16T10:06:05.898Z,16.50
2019-01-16T10:07:05.882Z,16.70
2019-01-16T10:08:05.872Z,12.80
2019-01-16T10:09:05.863Z,14.10
2019-01-16T10:10:05.848Z,14.80
2019-01-16T10:11:05.840Z,15.10
2019-01-16T10:12:05.831Z,12.30
2019-01-16T10:13:05.822Z,14.30
2019-01-16T10:14:05.817Z,14.40
2019-01-16T10:15:05.808Z,15.30
2019-01-16T10:16:05.792Z,11.60
2019-01-16T10:17:05.785Z,12.90
2019-01-16T10:18:05.781Z,12.50
2019-01-16T10:19:05.775Z,14.00
2019-01-16T10:20:05.760Z,15.40
2019-01-16T10:21:05.751Z,12.20
2019-01-16T10:22:05.738Z,10.60
2019-01-16T10:23:05.729Z,12.30
2019-01-16T10:24:05.720Z,11.80
2019-01-16T10:25:05.709Z,12.10
2019-01-16T10:26:05.706Z,12.00
2019-01-16T10:27:05.696Z,11.70
2019-01-16T10:28:05.687Z,11.80
2019-01-16T10:29:05.679Z,12.20
2019-01-16T10:30:05.664Z,13.70
2019-01-16T10:31:05.655Z,11.90
2019-01-16T10:32:05.652Z,9.50
2019-01-16T10:33:05.641Z,12.20
2019-01-16T10:34:05.627Z,9.20
2019-01-16T10:35:05.617Z,12.30
2019-01-16T10:36:05.607Z,10.50
2019-01-16T10:37:05.598Z,10.70
2019-01-16T10:38:05.593Z,10.40
2019-01-16T10:39:05.583Z,9.70
2019-01-16T10:40:05.576Z,11.20
2019-01-16T10:41:05.566Z,8.70
2019-01-16T10:42:05.553Z,11.40
2019-01-16T10:43:05.608Z,9.10
2019-01-16T10:44:05.533Z,13.90
2019-01-16T10:45:05.523Z,8.20
2019-01-16T10:46:05.520Z,9.20
2019-01-16T10:47:05.511Z,9.30
2019-01-16T10:48:05.497Z,9.90
2019-01-16T10:49:05.488Z,11.10
2019-01-16T10:50:05.482Z,11.00
2019-01-16T10:51:05.473Z,10.60
2019-01-16T10:52:05.466Z,10.00
2019-01-16T10:53:05.456Z,11.10
2019-01-16T10:54:05.443Z,11.60
2019-01-16T10:55:05.433Z,14.20
2019-01-16T10:56:05.423Z,8.90
2019-01-16T10:57:05.415Z,12.50
2019-01-16T10:58:05.410Z,10.80
2019-01-16T10:59:05.401Z,12.30
2019-01-16T11:00:05.401Z,12.00
2019-01-16T11:01:05.384Z,14.10
2019-01-16T11:02:05.370Z,11.20
2019-01-16T11:03:05.361Z,9.70
2019-01-16T11:04:05.357Z,11.60
2019-01-16T11:05:05.348Z,12.00
2019-01-16T11:06:05.334Z,9.60
2019-01-16T11:07:05.324Z,11.30
2019-01-16T11:08:05.316Z,11.00
2019-01-16T11:09:05.307Z,9.90
2019-01-16T11:10:05.303Z,11.90
2019-01-16T11:11:06.709Z,11.00
2019-01-16T11:12:05.285Z,16.00
2019-01-16T11:13:05.275Z,10.50
2019-01-16T11:14:05.263Z,10.10
2019-01-16T11:15:05.252Z,8.70
2019-01-16T11:16:05.245Z,13.60
2019-01-16T11:17:05.234Z,12.90
2019-01-16T11:18:05.231Z,9.30
2019-01-16T11:19:05.221Z,11.30
2019-01-16T11:20:05.207Z,14.60
2019-01-16T11:21:11.002Z,11.00
2019-01-16T11:22:05.195Z,13.50
2019-01-16T11:23:05.185Z,12.30
2019-01-16T11:24:05.176Z,13.60
2019-01-16T11:25:05.169Z,11.00
2019-01-16T11:26:05.154Z,9.80
2019-01-16T11:27:05.144Z,10.90
2019-01-16T11:28:05.134Z,17.00
2019-01-16T11:29:05.128Z,12.10
2019-01-16T11:30:05.124Z,11.90
2019-01-16T11:31:05.115Z,8.70
2019-01-16T11:32:05.104Z,14.20
2019-01-16T11:33:05.096Z,11.10
2019-01-16T11:34:05.083Z,12.10
2019-01-16T11:35:05.073Z,6.50
2019-01-16T11:36:05.079Z,18.10
2019-01-16T11:37:05.061Z,12.50
2019-01-16T11:38:05.048Z,14.00
2019-01-16T11:39:05.040Z,11.00
2019-01-16T11:40:05.252Z,10.70
2019-01-16T11:41:05.025Z,10.10
2019-01-16T11:42:05.022Z,10.30
2019-01-16T11:43:05.010Z,12.40
2019-01-16T11:44:04.998Z,8.00
2019-01-16T11:45:04.988Z,14.90
2019-01-16T11:46:04.985Z,10.70
2019-01-16T11:47:04.978Z,12.10
2019-01-16T11:48:04.968Z,16.60
2019-01-16T11:49:04.960Z,11.10
2019-01-16T11:50:04.946Z,13.80
2019-01-16T11:51:04.938Z,11.00
2019-01-16T11:52:04.934Z,14.30
2019-01-16T11:53:04.925Z,12.70
2019-01-16T11:54:04.915Z,10.40
2019-01-16T11:55:04.902Z,13.10
2019-01-16T11:56:04.894Z,9.70
2019-01-16T11:57:04.886Z,10.90
2019-01-16T11:58:04.882Z,10.80
2019-01-16T11:59:04.873Z,15.50
2019-01-16T12:00:04.863Z,15.90
2019-01-16T12:01:04.856Z,15.90
2019-01-16T12:02:04.842Z,11.00
2019-01-16T12:03:04.832Z,14.10
2019-01-16T12:04:04.824Z,14.20
2019-01-16T12:05:04.819Z,15.10
2019-01-16T12:06:04.811Z,13.30
2019-01-16T12:07:04.802Z,12.40
2019-01-16T12:08:04.788Z,20.00
2019-01-16T12:09:04.780Z,13.50
2019-01-16T12:10:04.775Z,14.30
2019-01-16T12:11:04.766Z,11.10
2019-01-16T12:12:04.755Z,16.90
2019-01-16T12:13:04.804Z,13.00
2019-01-16T12:14:04.733Z,17.60
2019-01-16T12:15:04.723Z,12.20
2019-01-16T12:16:04.715Z,14.10
2019-01-16T12:17:04.725Z,18.50
2019-01-16T12:18:04.703Z,19.70
2019-01-16T12:19:04.690Z,11.50
2019-01-16T12:20:04.683Z,11.40
2019-01-16T12:21:04.674Z,12.80
2019-01-16T12:22:04.660Z,15.90
2019-01-16T12:23:04.650Z,15.10
2019-01-16T12:24:04.649Z,14.00
2019-01-16T12:25:04.636Z,17.10
2019-01-16T12:26:08.310Z,16.30
2019-01-16T12:27:04.613Z,17.70
2019-01-16T12:28:04.604Z,14.50
2019-01-16T12:29:04.594Z,12.10
2019-01-16T12:30:04.590Z,13.40
2019-01-16T12:31:04.586Z,13.70
2019-01-16T12:32:04.573Z,11.90
2019-01-16T12:33:04.560Z,11.90
2019-01-16T12:34:04.547Z,13.30
2019-01-16T12:35:04.536Z,13.00
2019-01-16T12:36:04.527Z,11.90
2019-01-16T12:37:04.518Z,15.40
2019-01-16T12:38:04.516Z,14.30
2019-01-16T12:39:04.504Z,18.50
2019-01-16T12:40:04.490Z,11.80
2019-01-16T12:41:04.481Z,14.00
2019-01-16T12:42:04.476Z,13.50
2019-01-16T12:43:04.469Z,15.70
2019-01-16T12:44:04.456Z,15.80
2019-01-16T12:45:04.450Z,13.90
2019-01-16T12:46:04.437Z,17.80
2019-01-16T12:47:04.422Z,11.60
2019-01-16T12:48:04.415Z,10.80
2019-01-16T12:49:05.974Z,13.80
2019-01-16T12:50:04.451Z,8.90
2019-01-16T12:51:04.391Z,13.30
2019-01-16T12:52:04.381Z,13.50
2019-01-16T12:53:04.372Z,11.60
2019-01-16T12:54:04.366Z,12.10
2019-01-16T12:55:04.347Z,12.10
2019-01-16T12:56:04.343Z,13.10
2019-01-16T12:57:04.334Z,12.00
2019-01-16T12:58:04.321Z,11.40
2019-01-16T12:59:04.311Z,15.90
2019-01-16T13:00:04.301Z,17.70
2019-01-16T13:01:04.294Z,10.90
2019-01-16T13:02:04.288Z,12.30
2019-01-16T13:03:04.279Z,11.00
2019-01-16T13:04:04.270Z,11.50
2019-01-16T13:05:04.263Z,13.40
2019-01-16T13:06:04.245Z,12.40
2019-01-16T13:07:04.238Z,15.40
2019-01-16T13:08:04.228Z,9.20
2019-01-16T13:09:04.218Z,11.00
2019-01-16T13:10:04.213Z,9.30
2019-01-16T13:11:04.204Z,11.80
2019-01-16T13:12:04.190Z,15.10
2019-01-16T13:13:04.180Z,10.30
2019-01-16T13:14:04.175Z,13.10
2019-01-16T13:15:04.165Z,10.70